sensor_id;sensor_type;location;lat;lon;timestamp;pressure;altitude;pressure_sealevel;temperature;humidity
5988;BME280;3021;51.000;6.980;2023-04-23T00:01:25;67594.03;;;11.61;100.00
5988;BME280;3021;51.000;6.980;2023-04-23T00:03:51;67591.28;;;11.61;100.00
5988;BME280;3021;51.000;6.980;2023-04-23T00:06:20;67591.72;;;11.58;100.00
5988;BME280;3021;51.000;6.980;2023-04-23T00:08:46;67598.66;;;11.65;100.00
5988;BME280;3021;51.000;6.980;2023-04-23T00:11:12;67600.41;;;11.66;100.00
5988;BME280;3021;51.000;6.980;2023-04-23T00:13:37;67598.06;;;11.64;100.00
5988;BME280;3021;51.000;6.980;2023-04-23T00:16:03;67593.03;;;11.62;100.00
5988;BME280;3021;51.000;6.980;2023-04-23T00:18:29;67596.78;;;11.61;100.00
5988;BME280;3021;51.000;6.980;2023-04-23T00:20:54;67598.06;;;11.64;100.00
5988;BME280;3021;51.000;6.980;2023-04-23T00:23:20;67594.03;;;11.61;100.00
5988;BME280;3021;51.000;6.980;2023-04-23T00:25:45;67587.97;;;11.60;100.00
5988;BME280;3021;51.000;6.980;2023-04-23T00:28:10;67601.53;;;11.67;100.00
5988;BME280;3021;51.000;6.980;2023-04-23T00:30:36;67592.88;;;11.59;100.00
5988;BME280;3021;51.000;6.980;2023-04-23T00:33:01;67593.31;;;11.57;100.00
5988;BME280;3021;51.000;6.980;2023-04-23T00:35:26;67588.81;;;11.56;100.00
5988;BME280;3021;51.000;6.980;2023-04-23T00:37:52;67582.59;;;11.53;100.00
5988;BME280;3021;51.000;6.980;2023-04-23T00:40:17;67574.97;;;11.44;100.00
5988;BME280;3021;51.000;6.980;2023-04-23T00:42:44;67564.13;;;11.36;100.00
5988;BME280;3021;51.000;6.980;2023-04-23T00:45:10;67560.50;;;11.31;100.00
5988;BME280;3021;51.000;6.980;2023-04-23T00:47:36;67555.88;;;11.27;100.00
5988;BME280;3021;51.000;6.980;2023-04-23T00:50:02;67558.91;;;11.32;100.00
5988;BME280;3021;51.000;6.980;2023-04-23T00:52:28;67559.34;;;11.30;100.00
5988;BME280;3021;51.000;6.980;2023-04-23T00:54:53;67549.50;;;11.21;100.00
5988;BME280;3021;51.000;6.980;2023-04-23T00:57:19;67546.75;;;11.21;100.00
5988;BME280;3021;51.000;6.980;2023-04-23T00:59:46;67549.34;;;11.18;100.00
5988;BME280;3021;51.000;6.980;2023-04-23T01:02:11;67539.97;;;11.17;100.00
5988;BME280;3021;51.000;6.980;2023-04-23T01:04:37;67542.72;;;11.17;100.00
5988;BME280;3021;51.000;6.980;2023-04-23T01:07:03;67546.03;;;11.18;100.00
5988;BME280;3021;51.000;6.980;2023-04-23T01:09:28;67545.44;;;11.17;100.00
5988;BME280;3021;51.000;6.980;2023-04-23T01:11:56;67542.59;;;11.15;100.00
5988;BME280;3021;51.000;6.980;2023-04-23T01:14:22;67540.69;;;11.11;100.00
5988;BME280;3021;51.000;6.980;2023-04-23T01:16:48;67540.25;;;11.13;100.00
5988;BME280;3021;51.000;6.980;2023-04-23T01:19:13;67540.25;;;11.13;100.00
5988;BME280;3021;51.000;6.980;2023-04-23T01:21:40;67536.78;;;11.10;100.00
5988;BME280;3021;51.000;6.980;2023-04-23T01:24:07;67533.31;;;11.06;100.00
5988;BME280;3021;51.000;6.980;2023-04-23T01:26:33;67531.59;;;11.05;100.00
5988;BME280;3021;51.000;6.980;2023-04-23T01:29:00;67524.63;;;10.99;100.00
5988;BME280;3021;51.000;6.980;2023-04-23T01:31:26;67516.56;;;10.92;100.00
5988;BME280;3021;51.000;6.980;2023-04-23T01:33:53;67513.09;;;10.88;100.00
5988;BME280;3021;51.000;6.980;2023-04-23T01:36:21;67505.59;;;10.82;100.00
5988;BME280;3021;51.000;6.980;2023-04-23T01:38:46;67498.63;;;10.76;100.00
5988;BME280;3021;51.000;6.980;2023-04-23T01:41:12;67507.16;;;10.81;100.00
5988;BME280;3021;51.000;6.980;2023-04-23T01:43:38;67503.84;;;10.80;100.00
5988;BME280;3021;51.000;6.980;2023-04-23T01:46:04;67496.75;;;10.71;100.00
5988;BME280;3021;51.000;6.980;2023-04-23T01:48:30;67487.22;;;10.68;100.00
5988;BME280;3021;51.000;6.980;2023-04-23T01:50:55;67506.59;;;10.80;100.00
5988;BME280;3021;51.000;6.980;2023-04-23T01:53:20;67506.72;;;10.83;100.00
5988;BME280;3021;51.000;6.980;2023-04-23T01:55:46;67513.09;;;10.88;100.00
5988;BME280;3021;51.000;6.980;2023-04-23T01:58:14;67513.81;;;10.92;100.00
5988;BME280;3021;51.000;6.980;2023-04-23T02:00:40;67511.50;;;10.89;100.00
5988;BME280;3021;51.000;6.980;2023-04-23T02:03:06;67518.16;;;10.91;100.00
5988;BME280;3021;51.000;6.980;2023-04-23T02:05:33;67508.19;;;10.89;100.00
5988;BME280;3021;51.000;6.980;2023-04-23T02:07:59;67517.72;;;10.93;100.00
5988;BME280;3021;51.000;6.980;2023-04-23T02:10:24;67504.56;;;10.83;100.00
5988;BME280;3021;51.000;6.980;2023-04-23T02:12:50;67501.09;;;10.80;100.00
5988;BME280;3021;51.000;6.980;2023-04-23T02:15:15;67502.09;;;10.79;100.00
5988;BME280;3021;51.000;6.980;2023-04-23T02:17:41;67494.75;;;10.75;100.00
5988;BME280;3021;51.000;6.980;2023-04-23T02:20:08;67490.69;;;10.71;100.00
5988;BME280;3021;51.000;6.980;2023-04-23T02:22:35;67488.81;;;10.67;100.00
5988;BME280;3021;51.000;6.980;2023-04-23T02:25:01;67485.50;;;10.66;100.00
5988;BME280;3021;51.000;6.980;2023-04-23T02:27:29;67482.44;;;10.61;100.00
5988;BME280;3021;51.000;6.980;2023-04-23T02:29:54;67484.19;;;10.63;100.00
5988;BME280;3021;51.000;6.980;2023-04-23T02:32:20;67473.94;;;10.56;100.00
5988;BME280;3021;51.000;6.980;2023-04-23T02:34:46;67468.16;;;10.51;100.00
5988;BME280;3021;51.000;6.980;2023-04-23T02:37:11;67476.09;;;10.55;100.00
5988;BME280;3021;51.000;6.980;2023-04-23T02:39:36;67473.66;;;10.51;100.00
5988;BME280;3021;51.000;6.980;2023-04-23T02:42:05;67482.91;;;10.59;100.00
5988;BME280;3021;51.000;6.980;2023-04-23T02:44:30;67485.34;;;10.64;100.00
5988;BME280;3021;51.000;6.980;2023-04-23T02:46:55;67480.44;;;10.64;100.00
5988;BME280;3021;51.000;6.980;2023-04-23T02:49:21;67469.31;;;10.52;100.00
5988;BME280;3021;51.000;6.980;2023-04-23T02:51:46;67476.81;;;10.59;100.00
5988;BME280;3021;51.000;6.980;2023-04-23T02:54:12;67469.16;;;10.49;100.00
5988;BME280;3021;51.000;6.980;2023-04-23T02:56:38;67461.66;;;10.43;100.00
5988;BME280;3021;51.000;6.980;2023-04-23T02:59:04;67447.19;;;10.30;100.00
5988;BME280;3021;51.000;6.980;2023-04-23T03:01:30;67444.28;;;10.27;100.00
5988;BME280;3021;51.000;6.980;2023-04-23T03:03:55;67449.50;;;10.32;100.00
5988;BME280;3021;51.000;6.980;2023-04-23T03:06:21;67448.34;;;10.31;100.00
5988;BME280;3021;51.000;6.980;2023-04-23T03:08:46;67442.72;;;10.28;100.00
5988;BME280;3021;51.000;6.980;2023-04-23T03:11:12;67450.06;;;10.32;100.00
5988;BME280;3021;51.000;6.980;2023-04-23T03:13:37;67441.41;;;10.25;100.00
5988;BME280;3021;51.000;6.980;2023-04-23T03:16:03;67426.53;;;10.14;100.00
5988;BME280;3021;51.000;6.980;2023-04-23T03:18:28;67428.72;;;10.13;100.00
5988;BME280;3021;51.000;6.980;2023-04-23T03:20:53;67437.38;;;10.21;100.00
5988;BME280;3021;51.000;6.980;2023-04-23T03:23:19;67433.91;;;10.18;100.00
5988;BME280;3021;51.000;6.980;2023-04-23T03:25:44;67439.69;;;10.23;100.00
5988;BME280;3021;51.000;6.980;2023-04-23T03:28:09;67420.03;;;10.06;100.00
5988;BME280;3021;51.000;6.980;2023-04-23T03:30:35;67421.19;;;10.07;100.00
5988;BME280;3021;51.000;6.980;2023-04-23T03:33:01;67416.56;;;10.02;100.00
5988;BME280;3021;51.000;6.980;2023-04-23T03:35:27;67410.81;;;9.97;100.00
5988;BME280;3021;51.000;6.980;2023-04-23T03:37:52;67414.13;;;9.98;100.00
5988;BME280;3021;51.000;6.980;2023-04-23T03:40:18;67417.72;;;10.03;100.00
5988;BME280;3021;51.000;6.980;2023-04-23T03:42:44;67418.16;;;10.01;100.00
5988;BME280;3021;51.000;6.980;2023-04-23T03:45:10;67410.81;;;9.97;100.00
5988;BME280;3021;51.000;6.980;2023-04-23T03:47:37;67415.41;;;10.01;100.00
5988;BME280;3021;51.000;6.980;2023-04-23T03:50:03;67431.44;;;10.13;100.00
5988;BME280;3021;51.000;6.980;2023-04-23T03:52:28;67427.56;;;10.12;100.00
5988;BME280;3021;51.000;6.980;2023-04-23T03:54:54;67430.44;;;10.15;100.00
5988;BME280;3021;51.000;6.980;2023-04-23T03:57:22;67425.81;;;10.11;100.00
5988;BME280;3021;51.000;6.980;2023-04-23T03:59:50;67425.81;;;10.11;100.00
5988;BME280;3021;51.000;6.980;2023-04-23T04:02:16;67426.97;;;10.12;100.00
5988;BME280;3021;51.000;6.980;2023-04-23T04:04:41;67426.84;;;10.09;100.00
5988;BME280;3021;51.000;6.980;2023-04-23T04:07:10;67432.19;;;10.16;100.00
5988;BME280;3021;51.000;6.980;2023-04-23T04:09:36;67432.31;;;10.19;100.00
5988;BME280;3021;51.000;6.980;2023-04-23T04:12:02;67448.34;;;10.31;100.00
5988;BME280;3021;51.000;6.980;2023-04-23T04:14:28;67460.63;;;10.44;100.00
5988;BME280;3021;51.000;6.980;2023-04-23T04:16:53;67480.56;;;10.57;100.00
5988;BME280;3021;51.000;6.980;2023-04-23T04:19:19;67485.34;;;10.64;100.00
5988;BME280;3021;51.000;6.980;2023-04-23T04:21:44;67483.03;;;10.62;100.00
5988;BME280;3021;51.000;6.980;2023-04-23T04:24:10;67492.88;;;10.70;100.00
5988;BME280;3021;51.000;6.980;2023-04-23T04:26:35;67487.66;;;10.66;100.00
5988;BME280;3021;51.000;6.980;2023-04-23T04:29:01;67487.09;;;10.65;100.00
5988;BME280;3021;51.000;6.980;2023-04-23T04:31:27;67489.97;;;10.68;100.00
5988;BME280;3021;51.000;6.980;2023-04-23T04:33:53;67491.84;;;10.72;100.00
5988;BME280;3021;51.000;6.980;2023-04-23T04:36:23;67495.75;;;10.73;100.00
5988;BME280;3021;51.000;6.980;2023-04-23T04:38:49;67501.53;;;10.78;100.00
5988;BME280;3021;51.000;6.980;2023-04-23T04:41:16;67500.97;;;10.78;100.00
5988;BME280;3021;51.000;6.980;2023-04-23T04:43:44;67511.78;;;10.85;100.00
5988;BME280;3021;51.000;6.980;2023-04-23T04:46:09;67517.84;;;10.95;100.00
5988;BME280;3021;51.000;6.980;2023-04-23T04:48:36;67524.63;;;10.99;100.00
5988;BME280;3021;51.000;6.980;2023-04-23T04:51:01;67539.09;;;11.12;100.00
5988;BME280;3021;51.000;6.980;2023-04-23T04:53:26;67535.78;;;11.11;100.00
5988;BME280;3021;51.000;6.980;2023-04-23T04:55:52;67545.44;;;11.17;100.00
5988;BME280;3021;51.000;6.980;2023-04-23T04:58:17;67553.69;;;11.27;100.00
5988;BME280;3021;51.000;6.980;2023-04-23T05:00:42;67565.13;;;11.35;100.00
5988;BME280;3021;51.000;6.980;2023-04-23T05:03:08;67576.25;;;11.47;100.00
5988;BME280;3021;51.000;6.980;2023-04-23T05:05:33;67576.25;;;11.47;100.00
5988;BME280;3021;51.000;6.980;2023-04-23T05:07:59;67585.94;;;11.53;100.00
5988;BME280;3021;51.000;6.980;2023-04-23T05:10:27;67588.25;;;11.55;100.00
5988;BME280;3021;51.000;6.980;2023-04-23T05:12:54;67592.44;;;11.62;100.00
5988;BME280;3021;51.000;6.980;2023-04-23T05:15:20;67595.19;;;11.62;100.00
5988;BME280;3021;51.000;6.980;2023-04-23T05:17:45;67598.22;;;11.67;100.00
5988;BME280;3021;51.000;6.980;2023-04-23T05:20:10;67610.25;;;11.75;100.00
5988;BME280;3021;51.000;6.980;2023-04-23T05:22:40;67620.63;;;11.84;100.00
5988;BME280;3021;51.000;6.980;2023-04-23T05:25:06;67620.22;;;11.86;100.00
5988;BME280;3021;51.000;6.980;2023-04-23T05:27:32;67623.13;;;11.89;100.00
5988;BME280;3021;51.000;6.980;2023-04-23T05:29:58;67628.34;;;11.93;100.00
5988;BME280;3021;51.000;6.980;2023-04-23T05:32:24;67642.22;;;12.06;100.00
5988;BME280;3021;51.000;6.980;2023-04-23T05:34:50;67652.63;;;12.15;100.00
5988;BME280;3021;51.000;6.980;2023-04-23T05:37:15;67661.91;;;12.23;100.00
5988;BME280;3021;51.000;6.980;2023-04-23T05:39:40;67676.78;;;12.34;100.00
5988;BME280;3021;51.000;6.980;2023-04-23T05:42:06;67686.78;;;12.45;100.00
5988;BME280;3021;51.000;6.980;2023-04-23T05:44:31;67699.06;;;12.59;100.00
5988;BME280;3021;51.000;6.980;2023-04-23T05:46:56;67707.75;;;12.67;100.00
5988;BME280;3021;51.000;6.980;2023-04-23T05:49:22;67736.41;;;12.87;100.00
5988;BME280;3021;51.000;6.980;2023-04-23T05:51:47;67753.22;;;13.02;100.00
5988;BME280;3021;51.000;6.980;2023-04-23T05:54:12;67764.47;;;13.17;100.00
5988;BME280;3021;51.000;6.980;2023-04-23T05:56:38;67780.69;;;13.31;100.00
5988;BME280;3021;51.000;6.980;2023-04-23T05:59:03;67791.56;;;13.39;100.00
5988;BME280;3021;51.000;6.980;2023-04-23T06:01:28;67781.28;;;13.32;100.00
5988;BME280;3021;51.000;6.980;2023-04-23T06:03:54;67788.81;;;13.39;100.00
5988;BME280;3021;51.000;6.980;2023-04-23T06:06:19;67796.94;;;13.46;100.00
5988;BME280;3021;51.000;6.980;2023-04-23T06:08:45;67813.03;;;13.58;100.00
5988;BME280;3021;51.000;6.980;2023-04-23T06:11:10;67820.53;;;13.64;100.00
5988;BME280;3021;51.000;6.980;2023-04-23T06:13:35;67828.78;;;13.74;100.00
5988;BME280;3021;51.000;6.980;2023-04-23T06:16:06;67849.97;;;13.88;100.00
5988;BME280;3021;51.000;6.980;2023-04-23T06:18:31;67851.28;;;13.92;100.00
5988;BME280;3021;51.000;6.980;2023-04-23T06:20:57;67846.63;;;13.88;100.00
5988;BME280;3021;51.000;6.980;2023-04-23T06:23:23;67833.75;;;13.74;100.00
5988;BME280;3021;51.000;6.980;2023-04-23T06:25:48;67837.34;;;13.79;100.00
5988;BME280;3021;51.000;6.980;2023-04-23T06:28:13;67849.38;;;13.88;100.00
5988;BME280;3021;51.000;6.980;2023-04-23T06:30:39;67868.06;;;14.07;100.00
5988;BME280;3021;51.000;6.980;2023-04-23T06:33:04;67877.47;;;14.17;100.00
5988;BME280;3021;51.000;6.980;2023-04-23T06:35:29;67900.50;;;14.35;100.00
5988;BME280;3021;51.000;6.980;2023-04-23T06:37:55;67918.06;;;14.54;100.00
5988;BME280;3021;51.000;6.980;2023-04-23T06:40:20;67937.06;;;14.68;100.00
5988;BME280;3021;51.000;6.980;2023-04-23T06:42:46;67954.91;;;14.81;100.00
5988;BME280;3021;51.000;6.980;2023-04-23T06:45:11;67977.22;;;15.06;100.00
5988;BME280;3021;51.000;6.980;2023-04-23T06:47:37;67996.22;;;15.20;100.00
5988;BME280;3021;51.000;6.980;2023-04-23T06:50:02;68000.88;;;15.25;100.00
5988;BME280;3021;51.000;6.980;2023-04-23T06:52:29;67963.72;;;14.92;100.00
5988;BME280;3021;51.000;6.980;2023-04-23T06:54:55;67964.91;;;14.93;100.00
5988;BME280;3021;51.000;6.980;2023-04-23T06:57:20;67982.88;;;15.09;100.00
5988;BME280;3021;51.000;6.980;2023-04-23T06:59:46;67986.22;;;15.09;100.00
5988;BME280;3021;51.000;6.980;2023-04-23T07:02:11;67995.63;;;15.20;100.00
5988;BME280;3021;51.000;6.980;2023-04-23T07:04:36;68036.69;;;15.54;100.00
5988;BME280;3021;51.000;6.980;2023-04-23T07:07:02;68065.28;;;15.82;100.00
5988;BME280;3021;51.000;6.980;2023-04-23T07:09:27;68084.56;;;16.01;100.00
5988;BME280;3021;51.000;6.980;2023-04-23T07:11:53;68155.25;;;16.62;100.00
5988;BME280;3021;51.000;6.980;2023-04-23T07:14:19;68210.47;;;17.10;100.00
5988;BME280;3021;51.000;6.980;2023-04-23T07:16:44;68255.34;;;17.53;100.00
5988;BME280;3021;51.000;6.980;2023-04-23T07:19:10;68308.13;;;17.97;100.00
5988;BME280;3021;51.000;6.980;2023-04-23T07:21:35;68337.31;;;18.25;100.00
5988;BME280;3021;51.000;6.980;2023-04-23T07:24:01;68334.41;;;18.23;100.00
5988;BME280;3021;51.000;6.980;2023-04-23T07:26:33;68342.69;;;18.33;100.00
5988;BME280;3021;51.000;6.980;2023-04-23T07:28:59;68385.00;;;18.68;100.00
5988;BME280;3021;51.000;6.980;2023-04-23T07:31:25;68366.84;;;18.49;100.00
5988;BME280;3021;51.000;6.980;2023-04-23T07:33:51;68414.69;;;18.94;100.00
5988;BME280;3021;51.000;6.980;2023-04-23T07:36:16;68483.47;;;19.57;100.00
5988;BME280;3021;51.000;6.980;2023-04-23T07:38:42;68514.22;;;19.82;100.00
5988;BME280;3021;51.000;6.980;2023-04-23T07:41:07;68584.22;;;20.46;100.00
5988;BME280;3021;51.000;6.980;2023-04-23T07:43:32;68591.06;;;20.50;100.00
5988;BME280;3021;51.000;6.980;2023-04-23T07:45:58;68570.09;;;20.31;100.00
5988;BME280;3021;51.000;6.980;2023-04-23T07:48:23;68461.69;;;19.33;100.00
5988;BME280;3021;51.000;6.980;2023-04-23T07:50:49;68411.19;;;18.91;100.00
5988;BME280;3021;51.000;6.980;2023-04-23T07:53:14;68454.25;;;19.29;100.00
5988;BME280;3021;51.000;6.980;2023-04-23T07:55:40;68522.50;;;19.92;100.00
5988;BME280;3021;51.000;6.980;2023-04-23T07:58:05;68552.06;;;20.15;100.00
5988;BME280;3021;51.000;6.980;2023-04-23T08:00:31;68518.88;;;19.86;100.00
5988;BME280;3021;51.000;6.980;2023-04-23T08:02:57;68459.50;;;19.33;100.00
5988;BME280;3021;51.000;6.980;2023-04-23T08:05:22;68449.59;;;19.25;100.00
5988;BME280;3021;51.000;6.980;2023-04-23T08:07:48;68531.56;;;19.95;100.00
5988;BME280;3021;51.000;6.980;2023-04-23T08:10:13;68591.06;;;20.50;100.00
5988;BME280;3021;51.000;6.980;2023-04-23T08:12:39;68634.78;;;20.88;100.00
5988;BME280;3021;51.000;6.980;2023-04-23T08:15:05;68578.25;;;20.38;100.00
5988;BME280;3021;51.000;6.980;2023-04-23T08:17:31;68563.13;;;20.25;100.00
5988;BME280;3021;51.000;6.980;2023-04-23T08:19:56;68555.56;;;20.18;100.00
5988;BME280;3021;51.000;6.980;2023-04-23T08:22:21;68566.63;;;20.28;100.00
5988;BME280;3021;51.000;6.980;2023-04-23T08:24:47;68761.28;;;22.00;100.00
5988;BME280;3021;51.000;6.980;2023-04-23T08:27:12;68871.53;;;22.98;100.00
5988;BME280;3021;51.000;6.980;2023-04-23T08:29:37;68842.97;;;22.72;100.00
5988;BME280;3021;51.000;6.980;2023-04-23T08:32:03;68903.19;;;23.28;100.00
5988;BME280;3021;51.000;6.980;2023-04-23T08:34:28;68871.53;;;22.98;100.00
5988;BME280;3021;51.000;6.980;2023-04-23T08:36:53;68782.88;;;22.19;100.00
5988;BME280;3021;51.000;6.980;2023-04-23T08:39:19;68787.50;;;22.23;100.00
5988;BME280;3021;51.000;6.980;2023-04-23T08:41:52;68713.47;;;21.58;100.00
5988;BME280;3021;51.000;6.980;2023-04-23T08:44:21;68799.78;;;22.34;100.00
5988;BME280;3021;51.000;6.980;2023-04-23T08:46:47;68710.00;;;21.55;100.00
5988;BME280;3021;51.000;6.980;2023-04-23T08:49:15;68729.22;;;21.72;100.00
5988;BME280;3021;51.000;6.980;2023-04-23T08:51:52;68740.88;;;21.82;100.00
5988;BME280;3021;51.000;6.980;2023-04-23T08:54:24;68646.44;;;20.99;100.00
5988;BME280;3021;51.000;6.980;2023-04-23T08:56:54;68673.38;;;21.25;100.00
5988;BME280;3021;51.000;6.980;2023-04-23T08:59:21;68873.88;;;23.00;100.00
5988;BME280;3021;51.000;6.980;2023-04-23T09:01:47;69076.53;;;24.78;100.00
5988;BME280;3021;51.000;6.980;2023-04-23T09:04:13;69117.56;;;25.17;100.00
5988;BME280;3021;51.000;6.980;2023-04-23T09:06:42;69201.06;;;25.88;100.00
5988;BME280;3021;51.000;6.980;2023-04-23T09:09:08;69231.00;;;26.17;100.00
5988;BME280;3021;51.000;6.980;2023-04-23T09:11:35;69123.50;;;25.25;100.00
5988;BME280;3021;51.000;6.980;2023-04-23T09:14:01;68925.25;;;23.45;100.00
5988;BME280;3021;51.000;6.980;2023-04-23T09:16:26;68918.84;;;23.39;100.00
5988;BME280;3021;51.000;6.980;2023-04-23T09:18:52;69064.88;;;24.68;100.00
5988;BME280;3021;51.000;6.980;2023-04-23T09:21:19;69388.91;;;27.53;100.00
5988;BME280;3021;51.000;6.980;2023-04-23T09:23:44;69355.06;;;27.26;100.00
5988;BME280;3021;51.000;6.980;2023-04-23T09:26:18;69836.25;;;31.46;100.00
5988;BME280;3021;51.000;6.980;2023-04-23T09:28:48;69803.00;;;31.22;100.00
5988;BME280;3021;51.000;6.980;2023-04-23T09:31:13;69831.75;;;31.47;100.00
5988;BME280;3021;51.000;6.980;2023-04-23T09:33:39;70088.38;;;33.70;100.00
5988;BME280;3021;51.000;6.980;2023-04-23T09:36:13;70445.47;;;36.80;92.83
5988;BME280;3021;51.000;6.980;2023-04-23T09:38:42;70295.41;;;35.51;85.58
5988;BME280;3021;51.000;6.980;2023-04-23T09:41:28;69819.34;;;31.34;94.80
5988;BME280;3021;51.000;6.980;2023-04-23T09:43:56;69429.91;;;27.89;100.00
5988;BME280;3021;51.000;6.980;2023-04-23T09:46:38;69153.69;;;25.46;100.00
5988;BME280;3021;51.000;6.980;2023-04-23T09:49:05;69000.47;;;24.09;100.00
5988;BME280;3021;51.000;6.980;2023-04-23T09:51:38;69055.50;;;24.60;100.00
5988;BME280;3021;51.000;6.980;2023-04-23T09:54:13;69130.78;;;25.24;100.00
5988;BME280;3021;51.000;6.980;2023-04-23T09:56:40;69010.50;;;24.20;100.00
5988;BME280;3021;51.000;6.980;2023-04-23T09:59:27;68811.22;;;22.39;100.00
5988;BME280;3021;51.000;6.980;2023-04-23T10:02:04;68817.03;;;22.44;100.00
5988;BME280;3021;51.000;6.980;2023-04-23T10:04:31;68818.34;;;22.48;100.00
5988;BME280;3021;51.000;6.980;2023-04-23T10:06:58;68764.06;;;22.00;100.00
5988;BME280;3021;51.000;6.980;2023-04-23T10:09:27;68704.00;;;21.47;100.00
5988;BME280;3021;51.000;6.980;2023-04-23T10:14:20;68711.59;;;21.54;100.00
5988;BME280;3021;51.000;6.980;2023-04-23T10:16:46;68716.28;;;21.58;100.00
5988;BME280;3021;51.000;6.980;2023-04-23T10:19:13;68660.75;;;21.06;100.00
5988;BME280;3021;51.000;6.980;2023-04-23T10:21:43;68581.50;;;20.36;100.00
5988;BME280;3021;51.000;6.980;2023-04-23T10:24:12;68526.78;;;19.88;100.00
5988;BME280;3021;51.000;6.980;2023-04-23T10:26:37;68545.66;;;20.10;100.00
5988;BME280;3021;51.000;6.980;2023-04-23T10:29:08;68676.59;;;21.23;100.00
5988;BME280;3021;51.000;6.980;2023-04-23T10:31:37;68679.53;;;21.26;100.00
5988;BME280;3021;51.000;6.980;2023-04-23T10:34:03;68666.56;;;21.12;100.00
5988;BME280;3021;51.000;6.980;2023-04-23T10:36:32;68638.75;;;20.89;100.00
5988;BME280;3021;51.000;6.980;2023-04-23T10:38:57;68676.47;;;21.20;100.00
5988;BME280;3021;51.000;6.980;2023-04-23T10:41:34;68648.06;;;20.98;100.00
5988;BME280;3021;51.000;6.980;2023-04-23T10:44:01;68711.59;;;21.54;100.00
5988;BME280;3021;51.000;6.980;2023-04-23T10:46:31;68793.69;;;22.24;100.00
5988;BME280;3021;51.000;6.980;2023-04-23T10:51:35;68617.78;;;20.71;100.00
5988;BME280;3021;51.000;6.980;2023-04-23T10:54:02;68560.22;;;20.23;100.00
5988;BME280;3021;51.000;6.980;2023-04-23T10:56:28;68569.41;;;20.28;100.00
5988;BME280;3021;51.000;6.980;2023-04-23T10:58:54;68611.22;;;20.63;100.00
5988;BME280;3021;51.000;6.980;2023-04-23T11:01:28;68573.47;;;20.32;100.00
5988;BME280;3021;51.000;6.980;2023-04-23T11:03:54;68606.69;;;20.61;100.00
5988;BME280;3021;51.000;6.980;2023-04-23T11:12:01;68679.41;;;21.23;100.00
5988;BME280;3021;51.000;6.980;2023-04-23T11:14:34;68700.50;;;21.44;100.00
5988;BME280;3021;51.000;6.980;2023-04-23T11:17:01;68707.66;;;21.53;100.00
5988;BME280;3021;51.000;6.980;2023-04-23T11:19:27;68718.72;;;21.63;100.00
5988;BME280;3021;51.000;6.980;2023-04-23T11:21:56;68746.13;;;21.87;100.00
5988;BME280;3021;51.000;6.980;2023-04-23T11:24:32;68781.69;;;22.18;100.00
5988;BME280;3021;51.000;6.980;2023-04-23T11:26:58;68767.13;;;22.05;100.00
5988;BME280;3021;51.000;6.980;2023-04-23T11:29:26;68774.69;;;22.12;100.00
5988;BME280;3021;51.000;6.980;2023-04-23T11:31:53;68756.38;;;21.91;100.00
5988;BME280;3021;51.000;6.980;2023-04-23T11:34:19;68767.13;;;22.05;100.00
5988;BME280;3021;51.000;6.980;2023-04-23T11:36:48;68732.72;;;21.75;100.00
5988;BME280;3021;51.000;6.980;2023-04-23T11:39:15;68711.00;;;21.53;100.00
5988;BME280;3021;51.000;6.980;2023-04-23T11:41:43;68741.34;;;21.80;100.00
5988;BME280;3021;51.000;6.980;2023-04-23T11:44:11;68828.94;;;22.60;100.00
5988;BME280;3021;51.000;6.980;2023-04-23T11:46:36;68890.25;;;23.14;100.00
5988;BME280;3021;51.000;6.980;2023-04-23T11:49:02;68876.81;;;23.02;100.00
5988;BME280;3021;51.000;6.980;2023-04-23T11:51:27;68877.38;;;23.03;100.00
5988;BME280;3021;51.000;6.980;2023-04-23T11:53:53;68874.34;;;22.98;100.00
5988;BME280;3021;51.000;6.980;2023-04-23T11:56:18;68771.66;;;22.07;100.00
5988;BME280;3021;51.000;6.980;2023-04-23T11:58:58;68623.47;;;20.74;100.00
5988;BME280;3021;51.000;6.980;2023-04-23T12:01:24;68633.63;;;20.87;100.00
5988;BME280;3021;51.000;6.980;2023-04-23T12:03:49;68649.81;;;20.99;100.00
5988;BME280;3021;51.000;6.980;2023-04-23T12:06:16;68685.81;;;21.29;100.00
5988;BME280;3021;51.000;6.980;2023-04-23T12:08:45;68683.03;;;21.29;100.00
5988;BME280;3021;51.000;6.980;2023-04-23T12:11:11;68663.78;;;21.12;100.00
5988;BME280;3021;51.000;6.980;2023-04-23T12:13:39;68665.44;;;21.11;100.00
5988;BME280;3021;51.000;6.980;2023-04-23T12:16:05;68609.47;;;20.61;100.00
5988;BME280;3021;51.000;6.980;2023-04-23T12:18:33;68558.34;;;20.18;100.00
5988;BME280;3021;51.000;6.980;2023-04-23T12:21:12;68531.56;;;19.95;100.00
5988;BME280;3021;51.000;6.980;2023-04-23T12:23:39;68578.72;;;20.36;100.00
5988;BME280;3021;51.000;6.980;2023-04-23T12:26:13;68616.59;;;20.70;100.00
5988;BME280;3021;51.000;6.980;2023-04-23T12:28:52;68619.50;;;20.73;100.00
5988;BME280;3021;51.000;6.980;2023-04-23T12:33:45;68609.28;;;20.68;100.00
5988;BME280;3021;51.000;6.980;2023-04-23T12:36:14;68569.28;;;20.26;100.00
5988;BME280;3021;51.000;6.980;2023-04-23T12:38:40;68585.13;;;20.42;100.00
5988;BME280;3021;51.000;6.980;2023-04-23T12:41:07;68541.47;;;20.03;100.00
5988;BME280;3021;51.000;6.980;2023-04-23T12:43:32;68532.72;;;19.96;100.00
5988;BME280;3021;51.000;6.980;2023-04-23T12:45:57;68542.59;;;20.05;100.00
5988;BME280;3021;51.000;6.980;2023-04-23T12:48:23;68558.91;;;20.19;100.00
5988;BME280;3021;51.000;6.980;2023-04-23T12:50:48;68576.50;;;20.37;100.00
5988;BME280;3021;51.000;6.980;2023-04-23T12:53:14;68608.41;;;20.63;100.00
5988;BME280;3021;51.000;6.980;2023-04-23T12:55:39;68585.56;;;20.40;100.00
5988;BME280;3021;51.000;6.980;2023-04-23T12:58:07;68614.84;;;20.68;100.00
5988;BME280;3021;51.000;6.980;2023-04-23T13:00:33;68620.09;;;20.73;100.00
5988;BME280;3021;51.000;6.980;2023-04-23T13:02:58;68621.25;;;20.74;100.00
5988;BME280;3021;51.000;6.980;2023-04-23T13:05:23;68592.25;;;20.51;100.00
5988;BME280;3021;51.000;6.980;2023-04-23T13:07:49;68630.00;;;20.82;100.00
5988;BME280;3021;51.000;6.980;2023-04-23T13:10:14;68631.16;;;20.83;100.00
5988;BME280;3021;51.000;6.980;2023-04-23T13:12:40;68640.50;;;20.91;100.00
5988;BME280;3021;51.000;6.980;2023-04-23T13:15:11;68620.69;;;20.74;100.00
5988;BME280;3021;51.000;6.980;2023-04-23T13:17:39;68656.34;;;21.08;100.00
5988;BME280;3021;51.000;6.980;2023-04-23T13:20:05;68672.66;;;21.22;100.00